createdAt,value
2023-06-30T13:47:49.339Z,1.10
2023-06-30T13:50:17.073Z,1.05
2023-06-30T13:52:45.006Z,1.00
2023-06-30T13:55:12.506Z,1.00
2023-06-30T13:57:52.852Z,0.90
2023-06-30T14:00:21.282Z,0.80
2023-06-30T14:02:48.464Z,0.93
2023-06-30T14:05:15.866Z,1.00
2023-06-30T14:07:43.494Z,0.80
2023-06-30T14:10:13.762Z,1.00
2023-06-30T14:12:42.193Z,0.80
2023-06-30T14:15:10.088Z,1.17
2023-06-30T14:17:40.351Z,1.00
2023-06-30T14:20:08.108Z,1.00
2023-06-30T14:22:35.889Z,0.82
2023-06-30T14:25:03.600Z,0.80
2023-06-30T14:27:30.884Z,0.93
2023-06-30T14:29:58.268Z,0.90
2023-06-30T14:32:27.291Z,1.00
2023-06-30T14:34:54.760Z,1.10
2023-06-30T14:37:22.363Z,0.93
2023-06-30T14:39:49.820Z,1.10
2023-06-30T14:42:30.904Z,0.95
2023-06-30T14:45:00.112Z,0.90
2023-06-30T14:47:27.623Z,1.00
2023-06-30T14:49:57.148Z,0.80
2023-06-30T14:54:52.844Z,0.95
2023-06-30T14:57:20.610Z,0.80
2023-06-30T14:59:48.042Z,1.13
2023-06-30T15:02:15.955Z,0.90
2023-06-30T15:04:43.236Z,1.00
2023-06-30T15:07:10.885Z,0.93
2023-06-30T15:09:40.807Z,0.90
2023-06-30T15:12:09.360Z,1.10
2023-06-30T15:14:36.801Z,1.13
2023-06-30T15:17:04.446Z,0.90
2023-06-30T15:19:34.903Z,1.00
2023-06-30T15:22:03.569Z,0.80
2023-06-30T15:24:31.638Z,1.00
2023-06-30T15:26:59.416Z,1.00
2023-06-30T15:29:26.731Z,1.30
2023-06-30T15:31:55.274Z,1.20
2023-06-30T15:34:23.586Z,0.98
2023-06-30T15:36:50.857Z,1.30
2023-06-30T15:39:18.447Z,1.00
2023-06-30T15:41:46.218Z,0.90
2023-06-30T15:44:15.086Z,1.20
2023-06-30T15:46:42.520Z,1.20
2023-06-30T15:49:10.193Z,0.90
2023-06-30T15:51:39.678Z,1.08
2023-06-30T15:54:10.227Z,0.75
2023-06-30T15:56:37.742Z,1.20
2023-06-30T15:59:05.448Z,0.95
2023-06-30T16:01:42.138Z,1.05
2023-06-30T16:04:10.086Z,1.00
2023-06-30T16:06:37.555Z,1.08
2023-06-30T16:09:04.809Z,1.10
2023-06-30T16:11:32.005Z,1.00
2023-06-30T16:14:02.008Z,1.13
2023-06-30T16:16:29.489Z,1.00
2023-06-30T16:18:56.931Z,1.15
2023-06-30T16:21:24.212Z,1.00
2023-06-30T16:23:52.120Z,0.90
2023-06-30T16:26:22.134Z,0.98
2023-06-30T16:28:50.108Z,1.17
2023-06-30T16:31:17.352Z,1.13
2023-06-30T16:33:45.073Z,1.15
2023-06-30T16:36:12.250Z,1.35
2023-06-30T16:38:41.239Z,1.40
2023-06-30T16:41:08.425Z,1.52
2023-06-30T16:43:35.652Z,1.60
2023-06-30T16:46:02.869Z,1.70
2023-06-30T16:48:30.026Z,1.33
2023-06-30T16:50:57.523Z,1.58
2023-06-30T16:53:28.636Z,1.40
2023-06-30T16:55:59.120Z,1.20
2023-06-30T17:00:54.875Z,1.30
2023-06-30T17:03:25.359Z,1.60
2023-06-30T17:05:52.632Z,1.30
2023-06-30T17:08:19.846Z,1.35
2023-06-30T17:10:47.439Z,1.30
2023-06-30T17:13:15.113Z,1.60
2023-06-30T17:15:42.642Z,1.30
2023-06-30T17:18:10.054Z,1.45
2023-06-30T17:20:37.364Z,1.35
2023-06-30T17:23:06.965Z,1.40
2023-06-30T17:25:34.383Z,1.23
2023-06-30T17:28:01.491Z,1.25
2023-06-30T17:30:30.711Z,1.40
2023-06-30T17:32:58.042Z,1.40
2023-06-30T17:35:25.965Z,1.42
2023-06-30T17:37:53.933Z,1.30
2023-06-30T17:40:22.112Z,1.60
2023-06-30T17:42:49.442Z,1.30
2023-06-30T17:45:16.868Z,1.52
2023-06-30T17:47:44.149Z,1.40
2023-06-30T17:50:11.705Z,1.38
2023-06-30T17:52:39.103Z,1.35
2023-06-30T17:55:06.739Z,1.15
2023-06-30T17:57:34.021Z,1.40
2023-06-30T18:00:01.249Z,1.50
2023-06-30T18:02:28.475Z,1.67
2023-06-30T18:04:55.980Z,1.50
2023-06-30T18:07:23.267Z,1.73
2023-06-30T18:09:50.839Z,1.80
2023-06-30T18:12:18.476Z,1.50
2023-06-30T18:14:45.859Z,1.60
2023-06-30T18:17:13.327Z,1.65
2023-06-30T18:19:44.166Z,1.75
2023-06-30T18:22:11.501Z,1.50
2023-06-30T18:24:39.298Z,1.60
2023-06-30T18:27:07.036Z,1.55
2023-06-30T18:29:34.253Z,1.60
2023-06-30T18:32:01.732Z,1.92
2023-06-30T18:34:28.953Z,1.60
2023-06-30T18:36:56.187Z,1.50
2023-06-30T18:39:23.426Z,1.52
2023-06-30T18:41:50.777Z,1.60
2023-06-30T18:44:18.374Z,1.80
2023-06-30T18:46:57.327Z,1.40
2023-06-30T18:49:26.166Z,1.77
2023-06-30T18:51:55.563Z,1.50
2023-06-30T18:54:23.036Z,3.05
2023-06-30T18:56:50.771Z,7.30
2023-06-30T18:59:18.257Z,8.60
2023-06-30T19:01:48.860Z,6.93
2023-06-30T19:04:17.060Z,7.55
2023-06-30T19:06:44.940Z,9.38
2023-06-30T19:09:12.090Z,8.80
2023-06-30T19:11:39.703Z,9.35
2023-06-30T19:14:06.841Z,11.85
2023-06-30T19:16:34.197Z,12.98
2023-06-30T19:19:01.451Z,11.65
2023-06-30T19:21:28.893Z,12.50
2023-06-30T19:23:59.731Z,13.25
2023-06-30T19:26:26.930Z,12.50
2023-06-30T19:28:54.175Z,10.50
2023-06-30T19:31:22.215Z,10.65
2023-06-30T19:33:49.631Z,9.90
2023-06-30T19:36:16.785Z,9.82
2023-06-30T19:38:44.907Z,9.48
2023-06-30T19:41:13.586Z,8.80
2023-06-30T19:43:41.106Z,7.38
2023-06-30T19:46:08.418Z,6.30
2023-06-30T19:48:35.596Z,6.55
2023-06-30T19:51:02.863Z,5.82
2023-06-30T19:53:29.966Z,5.93
2023-06-30T19:55:57.239Z,5.32
2023-06-30T19:58:24.561Z,4.35
2023-06-30T20:00:51.986Z,4.20
2023-06-30T20:03:20.290Z,4.03
2023-06-30T20:05:47.952Z,3.53
2023-06-30T20:08:15.379Z,3.85
2023-06-30T20:10:42.621Z,3.45
2023-06-30T20:13:09.841Z,3.47
2023-06-30T20:15:37.031Z,3.30
2023-06-30T20:18:04.673Z,3.00
2023-06-30T20:20:31.931Z,3.28
2023-06-30T20:22:59.066Z,3.35
2023-06-30T20:25:26.188Z,3.13
2023-06-30T20:27:53.449Z,3.28
2023-06-30T20:30:20.865Z,3.00
2023-06-30T20:32:48.272Z,3.45
2023-06-30T20:35:15.459Z,2.95
2023-06-30T20:37:42.707Z,3.33
2023-06-30T20:40:10.959Z,3.10
2023-06-30T20:42:41.161Z,3.22
2023-06-30T20:45:08.749Z,2.80
2023-06-30T20:47:36.703Z,2.90
2023-06-30T20:50:04.500Z,3.20
2023-06-30T20:52:31.802Z,2.97
2023-06-30T20:55:05.739Z,2.60
2023-06-30T20:57:41.427Z,2.28
2023-06-30T21:00:11.614Z,2.85
2023-06-30T21:02:39.037Z,2.72
2023-06-30T21:05:07.273Z,2.67
2023-06-30T21:07:34.609Z,2.60
2023-06-30T21:10:02.069Z,2.38
2023-06-30T21:12:29.312Z,2.40
2023-06-30T21:14:56.775Z,2.40
2023-06-30T21:17:24.688Z,2.63
2023-06-30T21:19:51.987Z,2.50
2023-06-30T21:22:19.366Z,4.90
2023-06-30T21:24:46.644Z,2.78
2023-06-30T21:27:14.297Z,3.17
2023-06-30T21:29:41.907Z,3.28
2023-06-30T21:32:09.690Z,2.92
2023-06-30T21:34:37.331Z,3.10
2023-06-30T21:37:07.721Z,3.25
2023-06-30T21:42:03.102Z,3.38
2023-06-30T21:44:33.103Z,6.28
2023-06-30T21:47:00.519Z,19.88
2023-06-30T21:49:28.107Z,26.10
2023-06-30T21:51:55.798Z,31.95
2023-06-30T21:54:31.512Z,35.20
2023-06-30T21:57:08.257Z,32.95
2023-06-30T21:59:35.542Z,32.50
2023-06-30T22:02:03.389Z,32.30
2023-06-30T22:04:30.861Z,30.98
2023-06-30T22:07:02.475Z,28.88
2023-06-30T22:09:29.999Z,27.55
2023-06-30T22:11:59.707Z,25.17
2023-06-30T22:17:07.816Z,25.10
2023-06-30T22:19:39.229Z,25.58
2023-06-30T22:22:13.196Z,22.80
2023-06-30T22:24:40.450Z,21.75
2023-06-30T22:27:08.284Z,20.90
2023-06-30T22:29:39.611Z,21.77
2023-06-30T22:32:08.054Z,21.38
2023-06-30T22:34:35.325Z,19.67
2023-06-30T22:37:02.518Z,18.85
2023-06-30T22:39:29.856Z,18.38
2023-06-30T22:41:57.512Z,17.98
2023-06-30T22:44:24.770Z,17.60
